Time;durP1;ratioP1;P1;durP2;ratioP2;P2;SDS_P1;SDS_P2;PMS_P1;PMS_P2;Temp;Humidity;BMP_temperature;BMP_pressure;BME280_temperature;BME280_humidity;BME280_pressure;Samples;Min_cycle;Max_cycle;Signal;HPM_P1;HPM_P2
2022/02/01 09:02:17;;;;;;;8.30;2.15;;;8.50;92.70;;;;;;5071635;28;20387;-57
2022/02/01 09:04:43;;;;;;;12.63;2.33;;;8.50;92.70;;;;;;5052931;28;20060;-59
2022/02/01 09:07:10;;;;;;;7.70;2.20;;;8.60;92.70;;;;;;5050043;28;20044;-60
2022/02/01 09:09:37;;;;;;;9.98;2.65;;;8.70;92.50;;;;;;5049682;28;20443;-58
2022/02/01 09:12:04;;;;;;;8.18;3.38;;;8.80;92.30;;;;;;5050085;28;20038;-60
2022/02/01 09:14:31;;;;;;;10.10;3.05;;;8.80;92.20;;;;;;5043218;28;20045;-56
2022/02/01 09:17:00;;;;;;;7.68;2.40;;;8.90;92.00;;;;;;5049862;28;20045;-61
2022/02/01 09:19:27;;;;;;;9.57;2.70;;;9.00;91.90;;;;;;5049578;28;20052;-58
2022/02/01 09:21:54;;;;;;;9.70;2.45;;;9.00;91.90;;;;;;5049504;28;20037;-58
2022/02/01 09:24:21;;;;;;;7.32;2.55;;;9.10;91.80;;;;;;5049662;28;20041;-57
2022/02/01 09:26:48;;;;;;;7.35;2.63;;;9.10;91.80;;;;;;5049618;28;20045;-57
2022/02/01 09:29:17;;;;;;;6.60;2.70;;;9.20;91.80;;;;;;5049839;28;20041;-59
2022/02/01 09:31:44;;;;;;;8.05;2.58;;;9.20;91.80;;;;;;5049509;28;20566;-56
2022/02/01 09:34:11;;;;;;;8.35;2.40;;;9.30;91.90;;;;;;5049207;28;20136;-63
2022/02/01 09:36:38;;;;;;;9.38;2.30;;;9.30;91.90;;;;;;5049339;28;20044;-57
2022/02/01 09:39:07;;;;;;;10.07;2.60;;;9.30;91.80;;;;;;5049817;28;20438;-61
2022/02/01 09:41:34;;;;;;;7.95;2.67;;;9.40;91.90;;;;;;5049399;28;20041;-58
2022/02/01 09:44:01;;;;;;;5.60;2.20;;;9.40;91.90;;;;;;5048904;28;20048;-64
2022/02/01 09:46:30;;;;;;;5.53;2.08;;;9.50;91.90;;;;;;5045977;28;20541;-63
2022/02/01 09:48:57;;;;;;;6.28;2.08;;;9.50;91.90;;;;;;5044687;28;20033;-59
2022/02/01 09:51:26;;;;;;;6.22;2.08;;;9.50;91.90;;;;;;5043744;28;20428;-59
2022/02/01 09:54:13;;;;;;;7.72;2.13;;;9.60;91.80;;;;;;5047558;28;20247;-57
2022/02/01 09:56:40;;;;;;;8.35;2.33;;;9.70;91.80;;;;;;5048741;28;20069;-62
2022/02/01 09:59:07;;;;;;;6.07;2.35;;;9.80;91.80;;;;;;5048672;28;20496;-60
2022/02/01 10:01:34;;;;;;;8.40;2.25;;;9.80;91.70;;;;;;5049766;28;20045;-61
2022/02/01 10:04:01;;;;;;;4.30;2.15;;;9.90;91.60;;;;;;5049731;28;20075;-58
2022/02/01 10:06:41;;;;;;;5.60;1.98;;;10.00;91.50;;;;;;5048255;28;20053;-59
2022/02/01 10:09:27;;;;;;;5.32;1.95;;;10.10;91.50;;;;;;5048938;28;20069;-53
2022/02/01 10:11:54;;;;;;;8.93;2.20;;;10.10;91.40;;;;;;5044760;28;20037;-57
2022/02/01 10:14:28;;;;;;;4.32;2.25;;;10.20;91.50;;;;;;5034103;28;20073;-60
2022/02/01 10:16:57;;;;;;;5.85;2.03;;;10.20;91.30;;;;;;5033776;28;20451;-61
2022/02/01 10:19:24;;;;;;;8.15;3.28;;;10.20;91.30;;;;;;5035344;28;20459;-64
2022/02/01 10:21:51;;;;;;;6.30;2.15;;;10.30;91.30;;;;;;5035085;28;20041;-54
2022/02/01 10:24:18;;;;;;;7.43;2.05;;;10.40;91.40;;;;;;5038788;28;20128;-59
2022/02/01 10:26:45;;;;;;;4.15;1.52;;;10.30;91.20;;;;;;5035317;28;20413;-58
2022/02/01 10:29:20;;;;;;;4.07;1.35;;;10.40;91.20;;;;;;5034117;28;20369;-57
2022/02/01 10:31:53;;;;;;;5.35;1.67;;;10.40;91.30;;;;;;5036064;28;20044;-60
2022/02/01 10:37:04;;;;;;;7.80;1.90;;;10.60;91.20;;;;;;5035101;28;20044;-60
2022/02/01 10:39:31;;;;;;;5.57;2.08;;;10.60;91.10;;;;;;5033764;28;20056;-60
2022/02/01 10:41:58;;;;;;;6.43;2.20;;;10.70;91.30;;;;;;5018066;28;20056;-57
2022/02/01 10:44:25;;;;;;;5.75;2.10;;;10.80;90.90;;;;;;5034020;28;20049;-63
2022/02/01 10:46:52;;;;;;;7.40;1.80;;;10.80;90.80;;;;;;5035029;28;20077;-60
2022/02/01 10:49:19;;;;;;;10.40;2.47;;;10.80;90.80;;;;;;5035033;28;20048;-58
2022/02/01 10:51:46;;;;;;;5.18;2.10;;;10.80;90.80;;;;;;5033783;28;20578;-54
2022/02/01 10:54:33;;;;;;;5.63;2.25;;;10.90;90.80;;;;;;5034923;28;20042;-59
2022/02/01 10:57:10;;;;;;;4.35;1.80;;;11.00;90.60;;;;;;5034740;28;20048;-63
2022/02/01 10:59:37;;;;;;;5.00;1.67;;;11.00;90.30;;;;;;5034860;28;20044;-59
2022/02/01 11:02:04;;;;;;;5.30;2.20;;;11.10;90.40;;;;;;5037552;28;20531;-58
2022/02/01 11:04:31;;;;;;;6.72;2.00;;;11.20;90.20;;;;;;5034778;28;20037;-57
2022/02/01 11:06:58;;;;;;;4.78;2.15;;;11.20;90.00;;;;;;5034823;28;20041;-61
2022/02/01 11:09:25;;;;;;;5.15;1.85;;;11.30;89.80;;;;;;5034893;28;20408;-60
2022/02/01 11:11:52;;;;;;;3.22;1.65;;;11.30;89.80;;;;;;5034644;28;20041;-57
2022/02/01 11:14:19;;;;;;;4.82;1.80;;;11.40;89.40;;;;;;5034554;28;20038;-62
2022/02/01 11:16:46;;;;;;;3.58;1.38;;;11.50;88.60;;;;;;5033997;28;20107;-61
2022/02/01 11:19:24;;;;;;;3.72;1.40;;;11.60;87.50;;;;;;5034113;28;20044;-59
2022/02/01 11:21:53;;;;;;;4.28;1.38;;;11.60;87.40;;;;;;5034140;28;20037;-60
2022/02/01 11:24:20;;;;;;;3.35;1.30;;;11.70;86.30;;;;;;5032050;28;20053;-57
2022/02/01 11:26:50;;;;;;;2.97;1.23;;;11.70;86.50;;;;;;5034860;28;20045;-60
2022/02/01 11:29:32;;;;;;;4.15;1.60;;;11.80;86.40;;;;;;5033858;28;20449;-63
2022/02/01 11:31:58;;;;;;;4.50;1.70;;;11.80;86.20;;;;;;5041663;28;20041;-57
2022/02/01 11:34:25;;;;;;;2.75;1.02;;;11.90;85.50;;;;;;5034697;28;20044;-62
2022/02/01 11:36:52;;;;;;;6.05;1.40;;;11.90;84.90;;;;;;5033890;28;20045;-55
2022/02/01 11:39:19;;;;;;;6.70;1.55;;;12.00;84.50;;;;;;5034246;28;20437;-56
2022/02/01 11:41:47;;;;;;;3.33;1.27;;;12.00;84.50;;;;;;5033663;28;20483;-62
2022/02/01 11:44:14;;;;;;;5.32;1.42;;;12.10;84.10;;;;;;5033751;28;20497;-60
2022/02/01 11:46:41;;;;;;;6.13;2.00;;;12.10;83.60;;;;;;5033464;28;20045;-60
2022/02/01 11:49:08;;;;;;;3.45;1.33;;;12.20;83.30;;;;;;5033545;28;20045;-60
2022/02/01 11:51:52;;;;;;;3.58;1.15;;;12.20;82.30;;;;;;5033379;28;20426;-62
2022/02/01 11:54:19;;;;;;;8.27;1.23;;;12.20;82.50;;;;;;5031889;28;20416;-61
2022/02/01 11:56:46;;;;;;;2.78;1.20;;;12.30;81.20;;;;;;5033370;28;20045;-61
2022/02/01 11:59:19;;;;;;;5.15;1.30;;;12.30;80.90;;;;;;5033522;28;20393;-58
2022/02/01 12:01:46;;;;;;;5.80;1.30;;;12.40;81.10;;;;;;5034319;28;20132;-58
2022/02/01 12:04:16;;;;;;;3.28;1.02;;;12.40;80.80;;;;;;5033257;28;20107;-60
2022/02/01 12:06:47;;;;;;;3.17;1.30;;;12.50;80.40;;;;;;5032908;28;20081;-53
2022/02/01 12:09:20;;;;;;;5.13;1.30;;;12.50;80.30;;;;;;5033042;28;20041;-60
2022/02/01 12:11:47;;;;;;;4.28;0.90;;;12.60;80.20;;;;;;5032947;28;20052;-62
2022/02/01 12:14:14;;;;;;;3.03;1.10;;;12.60;79.50;;;;;;5033323;28;20049;-55
2022/02/01 12:16:41;;;;;;;4.55;1.10;;;12.60;79.60;;;;;;5033684;28;20099;-60
2022/02/01 12:19:07;;;;;;;3.38;0.95;;;12.70;80.10;;;;;;5033047;28;20129;-57
2022/02/01 12:21:37;;;;;;;3.28;1.30;;;12.70;79.50;;;;;;5032810;28;20415;-60
2022/02/01 12:24:04;;;;;;;6.43;1.40;;;12.60;79.30;;;;;;5033113;28;20041;-61
2022/02/01 12:26:32;;;;;;;3.25;1.00;;;12.60;79.10;;;;;;5032722;28;20051;-61
2022/02/01 12:28:59;;;;;;;6.35;1.40;;;12.70;79.70;;;;;;5033287;28;20045;-60
2022/02/01 12:31:26;;;;;;;2.90;1.40;;;12.70;79.90;;;;;;5035486;28;20140;-62
2022/02/01 12:33:55;;;;;;;3.42;1.27;;;12.80;80.00;;;;;;5033305;28;20042;-57
2022/02/01 12:36:32;;;;;;;3.42;1.40;;;12.80;80.30;;;;;;5033093;28;20037;-59
2022/02/01 12:38:59;;;;;;;3.13;1.30;;;12.80;79.70;;;;;;5027544;28;20041;-59
2022/02/01 12:41:31;;;;;;;3.85;1.40;;;12.80;80.00;;;;;;5033103;28;20045;-57
2022/02/01 12:46:39;;;;;;;4.07;1.55;;;12.90;79.30;;;;;;5033510;28;20501;-61
2022/02/01 12:49:25;;;;;;;5.68;1.63;;;12.90;79.00;;;;;;5032940;28;20448;-65
2022/02/01 12:51:52;;;;;;;3.45;1.50;;;12.90;79.20;;;;;;5032838;28;20041;-59
2022/02/01 12:54:19;;;;;;;3.88;1.20;;;12.90;79.70;;;;;;5032822;28;20037;-58
2022/02/01 12:56:46;;;;;;;4.97;1.33;;;13.00;78.90;;;;;;5032742;28;20041;-58
2022/02/01 12:59:33;;;;;;;6.78;1.52;;;13.00;79.20;;;;;;5032887;28;20091;-58
2022/02/01 13:02:00;;;;;;;5.40;1.27;;;13.00;78.90;;;;;;5038448;28;20404;-60
2022/02/01 13:04:29;;;;;;;5.53;1.40;;;13.00;78.70;;;;;;5032534;28;20485;-59
2022/02/01 13:06:58;;;;;;;3.15;1.17;;;13.00;77.70;;;;;;5032715;28;20056;-60
2022/02/01 13:15:08;;;;;;;5.20;1.40;;;13.00;77.80;;;;;;5026354;28;20091;-55
2022/02/01 13:17:41;;;;;;;4.38;1.40;;;13.00;77.20;;;;;;5029794;28;20145;-59
2022/02/01 13:20:11;;;;;;;4.95;1.48;;;13.00;78.30;;;;;;5034924;28;20594;-54
2022/02/01 13:22:50;;;;;;;3.10;1.50;;;13.00;77.70;;;;;;5032069;28;20038;-60
2022/02/01 13:25:16;;;;;;;6.70;1.83;;;13.10;77.30;;;;;;5032535;28;20045;-58
2022/02/01 13:27:43;;;;;;;4.82;1.77;;;13.10;77.10;;;;;;5032471;28;20060;-59
2022/02/01 13:30:10;;;;;;;5.00;1.30;;;13.20;76.80;;;;;;5032276;28;20034;-56
2022/02/01 13:32:37;;;;;;;3.50;1.30;;;13.20;76.00;;;;;;5032403;28;20037;-53
2022/02/01 13:35:04;;;;;;;6.78;1.20;;;13.20;75.60;;;;;;5032551;28;20096;-58
2022/02/01 13:37:31;;;;;;;4.95;1.65;;;13.30;75.90;;;;;;5032330;28;20045;-58
2022/02/01 13:39:58;;;;;;;3.72;1.13;;;13.30;76.00;;;;;;5031333;28;20041;-55
2022/02/01 13:42:25;;;;;;;4.38;1.30;;;13.40;75.50;;;;;;5032450;28;20067;-58
2022/02/01 13:45:00;;;;;;;3.85;1.30;;;13.40;74.70;;;;;;5032455;28;20116;-56
2022/02/01 13:47:27;;;;;;;4.55;1.05;;;13.40;75.00;;;;;;5033514;28;20045;-55
2022/02/01 13:49:54;;;;;;;3.03;1.38;;;13.40;75.40;;;;;;5041408;28;20501;-56
2022/02/01 13:52:21;;;;;;;3.78;1.23;;;13.40;75.50;;;;;;5036025;28;20041;-58
2022/02/01 13:54:48;;;;;;;3.00;1.30;;;13.30;75.30;;;;;;5034969;28;20547;-55
2022/02/01 13:57:14;;;;;;;3.38;1.20;;;13.30;75.50;;;;;;5035817;28;20037;-59
2022/02/01 13:59:41;;;;;;;5.05;1.25;;;13.30;75.70;;;;;;5034800;28;20500;-57
2022/02/01 14:02:19;;;;;;;4.20;1.15;;;13.30;76.20;;;;;;5035772;28;20566;-61
2022/02/01 14:04:51;;;;;;;2.58;1.20;;;13.40;76.70;;;;;;5035665;28;20045;-57
2022/02/01 14:07:30;;;;;;;7.00;1.35;;;13.40;76.30;;;;;;5034785;28;20519;-61
2022/02/01 14:28:51;;;;;;;14.57;4.72;;;13.30;78.00;;;;;;5035173;28;20050;-58
2022/02/01 14:34:19;;;;;;;5.38;2.17;;;13.30;78.10;;;;;;5039042;28;20488;-55
2022/02/01 14:36:48;;;;;;;3.58;1.27;;;13.30;78.50;;;;;;5034105;28;20068;-60
2022/02/01 14:44:48;;;;;;;6.22;1.70;;;13.30;78.70;;;;;;5035344;28;20048;-59
2022/02/01 14:47:15;;;;;;;3.47;1.30;;;13.40;78.90;;;;;;5034920;28;20587;-60
2022/02/01 14:49:42;;;;;;;2.58;1.20;;;13.30;78.70;;;;;;5035135;28;20072;-61
2022/02/01 14:52:09;;;;;;;3.83;1.45;;;13.30;78.80;;;;;;5034966;28;20045;-59
2022/02/01 15:13:18;;;;;;;4.85;1.30;;;13.30;78.70;;;;;;5034307;28;20426;-56
2022/02/01 15:15:45;;;;;;;2.88;1.20;;;13.30;78.10;;;;;;5036030;28;20377;-59
2022/02/01 15:18:12;;;;;;;2.20;1.00;;;13.40;77.90;;;;;;5034324;28;20048;-60
2022/02/01 15:20:39;;;;;;;3.83;1.00;;;13.40;77.80;;;;;;5034382;28;20155;-57
2022/02/01 15:23:05;;;;;;;6.45;1.20;;;13.40;77.10;;;;;;5038753;28;20441;-54
2022/02/01 15:25:32;;;;;;;5.55;1.10;;;13.50;76.40;;;;;;5027860;28;20056;-59
2022/02/01 15:27:59;;;;;;;4.40;2.00;;;13.50;76.00;;;;;;5034294;28;20045;-56
2022/02/01 15:30:28;;;;;;;4.70;1.67;;;13.50;75.00;;;;;;5034327;28;20401;-62
2022/02/01 15:32:55;;;;;;;4.20;0.90;;;13.60;74.10;;;;;;5034213;28;20133;-57
2022/02/01 15:35:21;;;;;;;4.80;0.90;;;13.60;73.50;;;;;;5037800;28;20045;-62
2022/02/01 15:37:54;;;;;;;4.20;1.15;;;13.70;72.90;;;;;;5034573;28;20137;-59
2022/02/01 15:59:29;;;;;;;2.40;0.80;;;13.90;69.40;;;;;;5033581;28;20041;-60
2022/02/01 16:02:10;;;;;;;3.33;0.80;;;13.90;69.70;;;;;;5033172;28;20104;-63
2022/02/01 16:04:38;;;;;;;2.20;1.23;;;13.90;69.90;;;;;;5030754;28;20073;-57
2022/02/01 16:07:12;;;;;;;3.17;1.35;;;13.80;69.90;;;;;;5033404;28;20044;-58
2022/02/01 16:12:18;;;;;;;5.43;1.05;;;13.80;70.10;;;;;;5033351;28;20396;-62
2022/02/01 16:14:45;;;;;;;7.65;1.20;;;13.80;70.10;;;;;;5036868;28;20038;-65
2022/02/01 16:17:13;;;;;;;2.20;1.05;;;13.70;70.50;;;;;;5031981;28;20056;-57
2022/02/01 16:19:40;;;;;;;2.20;0.80;;;13.70;70.50;;;;;;5031966;28;20037;-58
2022/02/01 16:22:07;;;;;;;5.50;1.50;;;13.70;70.80;;;;;;5033072;28;20439;-61
2022/02/01 16:24:37;;;;;;;2.35;0.63;;;13.60;70.90;;;;;;5031778;28;20416;-58
2022/02/01 16:27:04;;;;;;;2.47;0.82;;;13.60;70.90;;;;;;5032970;28;20077;-59
2022/02/01 16:29:30;;;;;;;3.53;0.98;;;13.60;71.20;;;;;;5027289;28;20048;-61
2022/02/01 16:31:57;;;;;;;5.07;0.88;;;13.50;71.40;;;;;;5032990;28;20511;-57
2022/02/01 16:34:24;;;;;;;2.50;0.80;;;13.50;71.70;;;;;;5033115;28;20125;-54
2022/02/01 16:36:51;;;;;;;3.63;0.80;;;13.40;71.90;;;;;;5032866;28;20477;-56
2022/02/01 16:39:18;;;;;;;5.25;0.90;;;13.40;72.40;;;;;;5032888;28;20057;-58
2022/02/01 16:41:46;;;;;;;2.83;0.80;;;13.40;72.80;;;;;;5032876;28;20080;-59
2022/02/01 16:44:34;;;;;;;3.92;0.90;;;13.30;73.50;;;;;;5033760;28;20461;-58
2022/02/01 16:47:01;;;;;;;2.40;0.80;;;13.30;74.30;;;;;;5031651;28;20412;-58
2022/02/01 16:49:28;;;;;;;2.10;0.70;;;13.20;75.00;;;;;;5032988;28;20592;-56
2022/02/01 16:51:56;;;;;;;3.78;0.90;;;13.10;75.70;;;;;;5032790;28;20048;-63
2022/02/01 16:54:35;;;;;;;6.60;0.95;;;13.00;76.20;;;;;;5032622;28;20060;-58
2022/02/01 16:57:09;;;;;;;2.92;0.98;;;13.00;76.50;;;;;;5032230;28;20038;-61
2022/02/01 16:59:37;;;;;;;3.20;0.93;;;12.90;76.80;;;;;;5014949;28;20132;-59
2022/02/01 17:02:04;;;;;;;2.53;0.90;;;12.90;77.30;;;;;;5032376;28;20049;-58
2022/02/01 17:04:31;;;;;;;2.58;1.00;;;12.80;77.50;;;;;;5032114;28;20038;-56
2022/02/01 17:06:58;;;;;;;2.13;0.90;;;12.80;77.80;;;;;;5032347;28;20049;-57
2022/02/01 17:09:27;;;;;;;3.70;0.90;;;12.80;78.20;;;;;;5035718;28;20540;-58
2022/02/01 17:12:07;;;;;;;2.22;0.90;;;12.70;78.40;;;;;;5032183;28;20049;-55
2022/02/01 17:22:34;;;;;;;5.18;1.15;;;12.50;78.90;;;;;;5033512;28;20046;-60
2022/02/01 17:25:02;;;;;;;3.00;1.55;;;12.50;79.10;;;;;;5036192;28;20113;-60
2022/02/01 17:27:29;;;;;;;3.95;1.00;;;12.50;79.30;;;;;;5036483;28;20047;-58
2022/02/01 17:29:56;;;;;;;3.17;0.90;;;12.40;79.70;;;;;;5036388;28;20045;-60
2022/02/01 17:32:22;;;;;;;3.05;1.35;;;12.40;80.30;;;;;;5034836;28;20041;-61
2022/02/01 17:34:49;;;;;;;2.47;1.13;;;12.30;80.60;;;;;;5036577;28;20119;-61
2022/02/01 17:37:16;;;;;;;2.97;0.90;;;12.30;80.80;;;;;;5036298;28;20040;-65
2022/02/01 17:39:43;;;;;;;4.38;1.33;;;12.30;81.10;;;;;;5036691;28;20088;-59
2022/02/01 17:42:10;;;;;;;4.05;1.10;;;12.30;81.40;;;;;;5036690;28;20034;-61
2022/02/01 17:44:40;;;;;;;2.78;1.23;;;12.30;81.60;;;;;;5037889;28;20045;-52
2022/02/01 17:47:08;;;;;;;4.97;1.90;;;12.30;81.70;;;;;;5035923;28;20049;-59
2022/02/01 17:49:38;;;;;;;4.93;1.38;;;12.20;81.80;;;;;;5034243;28;20142;-56
2022/02/01 17:52:17;;;;;;;3.17;1.30;;;12.20;82.00;;;;;;5035717;28;20045;-60
2022/02/01 17:54:44;;;;;;;3.83;1.40;;;12.20;82.10;;;;;;5035475;28;20060;-59
2022/02/01 17:57:11;;;;;;;3.38;1.10;;;12.10;82.10;;;;;;5035605;28;20076;-58
2022/02/01 17:59:38;;;;;;;3.05;1.33;;;12.10;82.20;;;;;;5035599;28;20069;-53
2022/02/01 18:02:05;;;;;;;5.28;1.50;;;12.10;82.40;;;;;;5035024;28;20049;-56
2022/02/01 18:04:32;;;;;;;3.67;1.30;;;12.10;82.60;;;;;;5035739;28;20046;-56
2022/02/01 18:07:00;;;;;;;3.03;1.52;;;12.00;82.80;;;;;;5035766;28;20049;-60
2022/02/01 18:09:27;;;;;;;8.25;2.22;;;11.90;82.90;;;;;;5035624;28;20045;-57
2022/02/01 18:12:15;;;;;;;4.68;1.48;;;11.90;83.10;;;;;;5035651;28;20053;-55
2022/02/01 18:17:15;;;;;;;3.33;1.55;;;11.90;83.20;;;;;;5035543;28;20449;-53
2022/02/01 18:19:41;;;;;;;5.68;1.60;;;11.90;83.10;;;;;;5035465;28;20095;-53
2022/02/01 18:22:08;;;;;;;3.85;1.52;;;11.80;83.10;;;;;;5035409;28;20064;-56
2022/02/01 18:24:37;;;;;;;4.53;1.50;;;11.80;83.20;;;;;;5035236;28;20041;-58
2022/02/01 18:27:04;;;;;;;4.07;1.55;;;11.80;83.50;;;;;;5035482;28;20038;-57
2022/02/01 18:29:30;;;;;;;4.22;1.60;;;11.70;83.70;;;;;;5035400;28;20041;-60
2022/02/01 18:31:57;;;;;;;3.78;1.75;;;11.70;83.90;;;;;;5037601;28;20534;-60
2022/02/01 18:34:40;;;;;;;4.85;1.88;;;11.60;84.10;;;;;;5033602;28;20123;-59
2022/02/01 18:37:07;;;;;;;5.30;1.95;;;11.60;84.90;;;;;;5040736;28;20503;-61
2022/02/01 18:39:35;;;;;;;5.68;1.70;;;11.60;85.30;;;;;;5033834;28;20047;-57
2022/02/01 18:42:02;;;;;;;3.90;1.80;;;11.50;85.40;;;;;;5034825;28;20134;-59
2022/02/01 18:44:29;;;;;;;2.80;1.40;;;11.50;85.60;;;;;;5035256;28;20136;-55
2022/02/01 18:46:56;;;;;;;4.75;1.77;;;11.50;85.20;;;;;;5034898;28;20041;-58
2022/02/01 18:54:51;;;;;;;3.03;1.25;;;11.50;84.90;;;;;;5034867;28;20043;-59
2022/02/01 18:57:23;;;;;;;3.17;1.00;;;11.50;84.90;;;;;;5034659;28;20055;-60
2022/02/01 19:00:07;;;;;;;3.58;1.13;;;11.50;85.10;;;;;;5030281;28;20041;-59
2022/02/01 19:13:27;;;;;;;3.25;1.40;;;11.40;85.70;;;;;;5034452;28;20041;-57
2022/02/01 19:15:55;;;;;;;3.00;1.15;;;11.30;85.60;;;;;;5036867;28;20121;-62
2022/02/01 19:18:21;;;;;;;3.00;1.00;;;11.30;85.50;;;;;;5034219;28;20461;-58
2022/02/01 19:20:48;;;;;;;2.90;0.95;;;11.30;85.30;;;;;;5037160;28;20044;-56
2022/02/01 19:23:15;;;;;;;3.90;1.10;;;11.30;85.30;;;;;;5036679;28;20038;-56
2022/02/01 19:25:44;;;;;;;2.40;0.90;;;11.30;85.20;;;;;;5034265;28;20045;-59
2022/02/01 19:28:15;;;;;;;3.50;1.00;;;11.30;85.10;;;;;;5034092;28;20045;-59
2022/02/01 19:30:43;;;;;;;4.00;1.63;;;11.30;85.00;;;;;;5035733;28;20048;-62
2022/02/01 19:33:15;;;;;;;4.32;1.40;;;11.20;84.90;;;;;;5034071;28;20038;-61
2022/02/01 19:35:42;;;;;;;3.20;1.10;;;11.20;84.80;;;;;;5033303;28;20037;-57
2022/02/01 19:38:09;;;;;;;3.58;1.20;;;11.20;84.50;;;;;;5033911;28;20033;-61
2022/02/01 19:40:38;;;;;;;4.60;1.40;;;11.20;84.50;;;;;;5034093;28;20068;-55
2022/02/01 19:43:06;;;;;;;3.50;0.90;;;11.20;84.60;;;;;;5033966;28;20124;-58
2022/02/01 19:45:37;;;;;;;3.85;1.27;;;11.20;84.40;;;;;;5033038;28;20049;-60
2022/02/01 19:48:04;;;;;;;2.67;1.08;;;11.20;84.30;;;;;;5032837;28;20501;-58
2022/02/01 19:50:31;;;;;;;4.25;1.90;;;11.20;84.40;;;;;;5033912;28;20037;-57
2022/02/01 19:52:59;;;;;;;3.75;1.70;;;11.20;84.40;;;;;;5033656;28;20041;-57
2022/02/01 19:55:31;;;;;;;4.20;1.33;;;11.10;84.50;;;;;;5034188;28;20049;-61
2022/02/01 19:57:58;;;;;;;4.03;1.30;;;11.20;84.60;;;;;;5033617;28;20432;-61
2022/02/01 20:00:25;;;;;;;4.07;1.50;;;11.10;84.70;;;;;;5032442;28;20561;-53
2022/02/01 20:02:52;;;;;;;4.93;1.67;;;11.10;84.90;;;;;;5033700;28;20432;-57
2022/02/01 20:05:19;;;;;;;3.38;1.40;;;11.10;85.00;;;;;;5032497;28;20116;-55
2022/02/01 20:07:46;;;;;;;4.35;1.35;;;11.10;85.10;;;;;;5033323;28;20033;-59
2022/02/01 20:10:15;;;;;;;2.60;1.10;;;11.10;85.20;;;;;;5037971;28;20099;-57
2022/02/01 20:12:42;;;;;;;3.53;1.45;;;11.00;85.30;;;;;;5031537;28;20038;-58
2022/02/01 20:15:15;;;;;;;2.40;1.20;;;11.00;85.50;;;;;;5036403;28;20056;-60
2022/02/01 20:17:42;;;;;;;5.45;2.20;;;11.00;85.60;;;;;;5032986;28;20568;-60
2022/02/01 20:20:09;;;;;;;3.10;1.48;;;11.00;85.80;;;;;;5032998;28;20038;-63
2022/02/01 20:22:36;;;;;;;2.08;1.20;;;11.00;85.90;;;;;;5038777;28;20044;-59
2022/02/01 20:25:03;;;;;;;2.75;1.10;;;10.90;85.90;;;;;;5033127;28;20046;-58
2022/02/01 20:27:30;;;;;;;2.17;1.00;;;10.90;86.10;;;;;;5032700;28;20081;-59
2022/02/01 20:29:57;;;;;;;3.00;1.38;;;10.90;86.10;;;;;;5032896;28;20046;-64
2022/02/01 20:32:25;;;;;;;4.03;1.35;;;10.90;86.20;;;;;;5031846;28;20424;-60
2022/02/01 20:34:52;;;;;;;5.78;1.63;;;10.90;86.40;;;;;;5032608;28;20457;-58
2022/02/01 20:37:19;;;;;;;2.97;1.30;;;10.80;86.50;;;;;;5032280;28;20068;-56
2022/02/01 20:39:49;;;;;;;3.75;1.70;;;10.80;86.50;;;;;;5033131;28;20091;-64
2022/02/01 20:42:16;;;;;;;5.65;1.50;;;10.80;86.80;;;;;;5032924;28;20539;-59
2022/02/01 20:44:44;;;;;;;4.63;1.60;;;10.80;87.00;;;;;;5032994;28;20485;-60
2022/02/01 20:47:11;;;;;;;3.33;1.50;;;10.80;87.20;;;;;;5032660;28;20045;-60
2022/02/01 20:49:38;;;;;;;5.55;1.95;;;10.80;87.60;;;;;;5032700;28;20057;-60
2022/02/01 20:52:05;;;;;;;4.32;2.33;;;10.80;87.70;;;;;;5032489;28;20075;-60
2022/02/01 20:54:32;;;;;;;3.55;1.80;;;10.80;87.70;;;;;;5032386;28;20037;-62
2022/02/01 20:56:59;;;;;;;4.28;1.60;;;10.80;87.80;;;;;;5032123;28;20045;-61
2022/02/01 20:59:25;;;;;;;5.30;2.03;;;10.80;87.60;;;;;;5032436;28;20401;-62
2022/02/01 21:01:52;;;;;;;4.75;1.90;;;10.80;87.60;;;;;;5031953;28;20041;-61
2022/02/01 21:04:19;;;;;;;4.75;1.83;;;10.90;87.60;;;;;;5032129;28;20045;-58
2022/02/01 21:06:47;;;;;;;4.45;2.10;;;10.90;87.70;;;;;;5032744;28;20041;-61
2022/02/01 21:09:14;;;;;;;5.82;1.80;;;10.90;87.90;;;;;;5030902;28;20683;-62
2022/02/01 21:11:47;;;;;;;6.22;2.40;;;10.80;88.10;;;;;;5033446;28;20511;-65
2022/02/01 21:14:13;;;;;;;7.28;2.70;;;10.80;88.90;;;;;;5032997;28;20433;-61
2022/02/01 21:16:40;;;;;;;6.72;2.45;;;10.80;89.30;;;;;;5033052;28;20121;-60
2022/02/01 21:19:09;;;;;;;5.55;2.70;;;10.70;89.70;;;;;;5033386;28;20034;-61
2022/02/01 21:21:39;;;;;;;6.82;2.70;;;10.70;90.00;;;;;;5029884;28;20034;-59
2022/02/01 21:24:06;;;;;;;7.03;2.42;;;10.80;90.10;;;;;;5026508;28;20045;-62
2022/02/01 21:26:37;;;;;;;8.30;2.22;;;10.80;90.10;;;;;;5027863;28;20049;-61
2022/02/01 21:29:04;;;;;;;6.20;2.70;;;10.80;90.10;;;;;;5039193;28;20442;-61
2022/02/01 21:31:31;;;;;;;7.18;2.65;;;10.80;90.10;;;;;;5032307;28;20072;-61
2022/02/01 21:33:58;;;;;;;7.07;2.25;;;10.90;90.00;;;;;;5032903;28;20080;-55
2022/02/01 21:36:27;;;;;;;7.07;2.35;;;10.90;90.00;;;;;;5033090;28;20124;-55
2022/02/01 21:38:54;;;;;;;5.50;2.08;;;11.00;90.10;;;;;;5034135;28;20396;-55
2022/02/01 21:41:21;;;;;;;5.38;2.22;;;11.00;90.10;;;;;;5033777;28;20041;-61
2022/02/01 21:43:48;;;;;;;12.50;2.88;;;11.00;90.20;;;;;;5038509;28;20088;-60
2022/02/01 21:46:15;;;;;;;5.63;2.10;;;11.00;90.10;;;;;;5032097;28;20045;-53
2022/02/01 21:48:43;;;;;;;8.07;2.20;;;11.10;90.20;;;;;;5032709;28;20489;-56
2022/02/01 21:51:10;;;;;;;6.70;2.13;;;11.10;90.10;;;;;;5035765;28;20037;-62
2022/02/01 21:53:37;;;;;;;5.40;2.47;;;11.10;90.10;;;;;;5032999;28;20037;-59
2022/02/01 21:56:03;;;;;;;3.95;1.70;;;11.10;90.10;;;;;;5032347;28;20042;-59
2022/02/01 21:58:30;;;;;;;4.82;2.10;;;11.10;90.10;;;;;;5032393;28;20087;-58
2022/02/01 22:00:58;;;;;;;5.78;2.03;;;11.20;90.10;;;;;;5031368;28;20076;-57
2022/02/01 22:03:27;;;;;;;4.07;1.63;;;11.20;90.10;;;;;;5032293;28;20041;-56
2022/02/01 22:05:54;;;;;;;5.15;1.50;;;11.20;90.30;;;;;;5032120;28;20072;-60
2022/02/01 22:08:21;;;;;;;4.50;1.50;;;11.20;90.50;;;;;;5032817;28;20045;-59
2022/02/01 22:10:47;;;;;;;3.58;1.50;;;11.20;90.70;;;;;;5035818;28;20041;-58
2022/02/01 22:13:15;;;;;;;4.57;1.52;;;11.20;90.60;;;;;;5035630;28;20044;-59
2022/02/01 22:15:43;;;;;;;4.50;1.60;;;11.20;90.90;;;;;;5037308;28;20548;-54
2022/02/01 22:18:10;;;;;;;4.20;1.75;;;11.20;90.70;;;;;;5035608;28;20504;-58
2022/02/01 22:20:42;;;;;;;3.72;1.50;;;11.20;90.70;;;;;;5035566;28;20455;-60
2022/02/01 22:23:12;;;;;;;4.22;1.55;;;11.20;90.70;;;;;;5035578;28;20055;-56
2022/02/01 22:25:41;;;;;;;2.63;1.20;;;11.20;90.60;;;;;;5034291;28;20120;-56
2022/02/01 22:28:08;;;;;;;3.63;1.35;;;11.20;90.60;;;;;;5033580;28;20048;-61
2022/02/01 22:30:35;;;;;;;5.07;1.60;;;11.20;90.50;;;;;;5034365;28;20041;-58
2022/02/01 22:33:06;;;;;;;4.28;1.67;;;11.20;90.50;;;;;;5034914;28;20100;-50
2022/02/01 22:35:33;;;;;;;4.47;1.40;;;11.20;90.80;;;;;;5035093;28;20512;-59
2022/02/01 22:38:00;;;;;;;3.78;1.30;;;11.10;90.90;;;;;;5035081;28;20404;-54
2022/02/01 22:40:28;;;;;;;4.13;1.50;;;11.10;91.30;;;;;;5034994;28;20410;-57
2022/02/01 22:42:55;;;;;;;4.47;1.40;;;11.00;91.20;;;;;;5037392;28;20037;-58
2022/02/01 22:45:22;;;;;;;3.80;1.40;;;10.90;91.30;;;;;;5035120;28;20084;-59
2022/02/01 22:47:49;;;;;;;5.32;1.40;;;10.90;91.30;;;;;;5034992;28;20046;-52
2022/02/01 22:50:16;;;;;;;3.92;1.40;;;10.90;91.40;;;;;;5035046;28;20412;-61
2022/02/01 22:52:45;;;;;;;5.40;1.70;;;10.90;91.40;;;;;;5035215;28;20048;-59
2022/02/01 22:55:12;;;;;;;3.63;1.40;;;10.80;91.50;;;;;;5034774;28;20033;-60
2022/02/01 22:57:39;;;;;;;4.18;1.50;;;10.80;91.50;;;;;;5034705;28;20060;-58
2022/02/01 23:00:05;;;;;;;3.85;1.40;;;10.80;91.70;;;;;;5034705;28;20128;-60
2022/02/01 23:02:38;;;;;;;3.78;1.42;;;10.80;91.80;;;;;;5039786;28;20048;-59
2022/02/01 23:05:05;;;;;;;5.53;1.75;;;10.80;91.70;;;;;;5034671;28;20405;-58
2022/02/01 23:07:34;;;;;;;5.38;1.65;;;10.70;91.80;;;;;;5034615;28;20042;-60
2022/02/01 23:10:10;;;;;;;3.78;1.75;;;10.70;91.90;;;;;;5034622;28;20100;-60
2022/02/01 23:18:08;;;;;;;6.15;2.20;;;10.60;92.20;;;;;;5034352;28;20061;-58
2022/02/01 23:20:35;;;;;;;3.65;2.00;;;10.60;92.40;;;;;;5033949;28;20038;-57
2022/02/01 23:23:01;;;;;;;5.32;2.50;;;10.50;92.40;;;;;;5034478;28;20034;-58
2022/02/01 23:25:29;;;;;;;5.63;2.58;;;10.60;92.50;;;;;;5034368;28;20041;-60
2022/02/01 23:28:02;;;;;;;6.32;2.53;;;10.50;92.60;;;;;;5034348;28;20496;-60
2022/02/01 23:30:29;;;;;;;5.50;2.45;;;10.50;92.60;;;;;;5033753;28;20042;-60
2022/02/01 23:33:11;;;;;;;8.52;2.88;;;10.50;92.80;;;;;;5032972;28;20543;-59
2022/02/01 23:35:55;;;;;;;5.55;3.00;;;10.50;92.80;;;;;;5034270;28;20068;-59
2022/02/01 23:41:10;;;;;;;6.63;3.13;;;10.40;93.00;;;;;;5034065;28;20408;-54
2022/02/01 23:43:49;;;;;;;8.75;3.03;;;10.40;93.00;;;;;;5032672;28;20045;-55
2022/02/01 23:48:59;;;;;;;6.35;3.10;;;10.30;93.30;;;;;;5033990;28;20076;-62
2022/02/01 23:51:26;;;;;;;6.75;3.17;;;10.30;93.20;;;;;;5025113;28;20049;-59
2022/02/01 23:53:53;;;;;;;7.30;3.35;;;10.30;93.30;;;;;;5033821;28;20070;-57